createdAt,value
2017-07-07T00:00:12.581Z,1013.67
2017-07-07T00:01:12.644Z,1013.7
2017-07-07T00:02:12.646Z,1013.69
2017-07-07T00:03:12.683Z,1013.64
2017-07-07T00:04:12.717Z,1013.66
2017-07-07T00:05:12.738Z,1013.63
2017-07-07T00:06:12.785Z,1013.67
2017-07-07T00:07:12.820Z,1013.58
2017-07-07T00:08:12.837Z,1013.61
2017-07-07T00:09:12.892Z,1013.6
2017-07-07T00:10:12.924Z,1013.55
2017-07-07T00:11:12.964Z,1013.57
2017-07-07T00:12:12.993Z,1013.55
2017-07-07T00:13:13.026Z,1013.56
2017-07-07T00:14:13.049Z,1013.6
2017-07-07T00:15:13.098Z,1013.56
2017-07-07T00:16:13.132Z,1013.61
2017-07-07T00:17:13.148Z,1013.6
2017-07-07T00:18:13.203Z,1013.61
2017-07-07T00:19:13.238Z,1013.59
2017-07-07T00:20:13.273Z,1013.6
2017-07-07T00:21:13.306Z,1013.58
2017-07-07T00:22:13.340Z,1013.52
2017-07-07T00:23:13.372Z,1013.53
2017-07-07T00:24:13.408Z,1013.48
2017-07-07T00:25:13.446Z,1013.52
2017-07-07T00:26:13.480Z,1013.49
2017-07-07T00:27:13.514Z,1013.47
2017-07-07T00:28:13.545Z,1013.49
2017-07-07T00:29:13.580Z,1013.51
2017-07-07T00:30:13.613Z,1013.49
2017-07-07T00:31:13.652Z,1013.46
2017-07-07T00:32:13.683Z,1013.48
2017-07-07T00:33:13.721Z,1013.5
2017-07-07T00:34:13.754Z,1013.55
2017-07-07T00:35:13.791Z,1013.49
2017-07-07T00:36:13.823Z,1013.5
2017-07-07T00:37:13.855Z,1013.43
2017-07-07T00:38:13.892Z,1013.4
2017-07-07T00:39:13.923Z,1013.39
2017-07-07T00:40:13.960Z,1013.36
2017-07-07T00:41:13.996Z,1013.35
2017-07-07T00:42:14.009Z,1013.34
2017-07-07T00:43:14.050Z,1013.29
2017-07-07T00:44:14.102Z,1013.28
2017-07-07T00:45:14.137Z,1013.24
2017-07-07T00:46:14.169Z,1013.24
2017-07-07T00:47:14.202Z,1013.16
2017-07-07T00:48:14.235Z,1013.16
2017-07-07T00:49:14.261Z,1013.18
2017-07-07T00:50:14.300Z,1013.18
2017-07-07T00:51:14.341Z,1013.12
2017-07-07T00:52:14.364Z,1013.15
2017-07-07T00:53:14.413Z,1013.1
2017-07-07T00:54:14.440Z,1013.12
2017-07-07T00:55:14.479Z,1013.14
2017-07-07T00:56:14.512Z,1013.1
2017-07-07T00:57:14.548Z,1013.11
2017-07-07T00:58:14.583Z,1013.09
2017-07-07T00:59:14.611Z,1013.06
2017-07-07T01:00:14.650Z,1013
2017-07-07T01:01:14.681Z,1013.06
2017-07-07T01:02:14.719Z,1013.04
2017-07-07T01:03:14.756Z,1013.01
2017-07-07T01:04:14.770Z,1013
2017-07-07T01:05:14.819Z,1013.01
2017-07-07T01:06:14.858Z,1012.94
2017-07-07T01:07:14.890Z,1012.89
2017-07-07T01:08:14.937Z,1012.87
2017-07-07T01:09:14.957Z,1012.81
2017-07-07T01:10:14.990Z,1012.78
2017-07-07T01:11:15.026Z,1012.8
2017-07-07T01:12:15.061Z,1012.8
2017-07-07T01:13:15.095Z,1012.77
2017-07-07T01:14:15.129Z,1012.75
2017-07-07T01:15:15.165Z,1012.73
2017-07-07T01:16:15.195Z,1012.7
2017-07-07T01:17:15.230Z,1012.71
2017-07-07T01:18:15.268Z,1012.66
2017-07-07T01:19:15.303Z,1012.66
2017-07-07T01:20:15.331Z,1012.62
2017-07-07T01:21:15.367Z,1012.64
2017-07-07T01:22:15.399Z,1012.6
2017-07-07T01:23:15.437Z,1012.56
2017-07-07T01:24:15.472Z,1012.55
2017-07-07T01:25:15.506Z,1012.63
2017-07-07T01:26:15.537Z,1012.58
2017-07-07T01:27:15.570Z,1012.64
2017-07-07T01:28:15.608Z,1012.61
2017-07-07T01:29:15.641Z,1012.64
2017-07-07T01:30:15.675Z,1012.62
2017-07-07T01:31:15.709Z,1012.59
2017-07-07T01:32:15.744Z,1012.63
2017-07-07T01:33:15.775Z,1012.6
2017-07-07T01:34:15.815Z,1012.65
2017-07-07T01:35:15.845Z,1012.65
2017-07-07T01:36:15.878Z,1012.64
2017-07-07T01:37:15.910Z,1012.6
2017-07-07T01:38:15.947Z,1012.61
2017-07-07T01:39:15.970Z,1012.59
2017-07-07T01:40:16.015Z,1012.56
2017-07-07T01:41:16.050Z,1012.56
2017-07-07T01:42:16.070Z,1012.54
2017-07-07T01:43:16.119Z,1012.51
2017-07-07T01:44:16.157Z,1012.5
2017-07-07T01:45:16.192Z,1012.44
2017-07-07T01:46:16.219Z,1012.44
2017-07-07T01:47:16.259Z,1012.39
2017-07-07T01:48:16.290Z,1012.42
2017-07-07T01:49:16.322Z,1012.41
2017-07-07T01:50:16.360Z,1012.42
2017-07-07T01:51:16.393Z,1012.43
2017-07-07T01:52:16.427Z,1012.44
2017-07-07T01:53:16.462Z,1012.42
2017-07-07T01:54:16.486Z,1012.43
2017-07-07T01:55:16.530Z,1012.43
2017-07-07T01:56:16.567Z,1012.41
2017-07-07T01:57:16.602Z,1012.43
2017-07-07T01:58:16.630Z,1012.36
2017-07-07T01:59:16.671Z,1012.34
2017-07-07T02:00:16.704Z,1012.32
2017-07-07T02:01:16.736Z,1012.27
2017-07-07T02:02:16.772Z,1012.25
2017-07-07T02:03:16.802Z,1012.25
2017-07-07T02:04:16.838Z,1012.24
2017-07-07T02:05:16.872Z,1012.27
2017-07-07T02:06:16.905Z,1012.23
2017-07-07T02:07:16.943Z,1012.21
2017-07-07T02:08:16.979Z,1012.2
2017-07-07T02:09:17.010Z,1012.22
2017-07-07T02:10:17.049Z,1012.17
2017-07-07T02:11:17.083Z,1012.22
2017-07-07T02:12:17.113Z,1012.21
2017-07-07T02:13:17.149Z,1012.16
2017-07-07T02:14:17.182Z,1012.16
2017-07-07T02:15:17.213Z,1012.15
2017-07-07T02:16:17.249Z,1012.15
2017-07-07T02:17:17.270Z,1012.16
2017-07-07T02:18:17.319Z,1012.13
2017-07-07T02:19:17.349Z,1012.16
2017-07-07T02:20:17.385Z,1012.09
2017-07-07T02:21:17.422Z,1012.14
2017-07-07T02:22:17.454Z,1012.13
2017-07-07T02:23:17.469Z,1012.07
2017-07-07T02:24:17.521Z,1012.07
2017-07-07T02:25:17.564Z,1012.08
2017-07-07T02:26:17.593Z,1012.11
2017-07-07T02:27:17.625Z,1012.1
2017-07-07T02:28:17.659Z,1012.06
2017-07-07T02:29:17.679Z,1012.07
2017-07-07T02:30:17.729Z,1012.05
2017-07-07T02:31:17.762Z,1011.99
2017-07-07T02:32:17.791Z,1011.95
2017-07-07T02:33:17.809Z,1011.96
2017-07-07T02:34:17.864Z,1011.97
2017-07-07T02:35:17.896Z,1011.88
2017-07-07T02:36:17.931Z,1011.89
2017-07-07T02:37:17.968Z,1011.9
2017-07-07T02:38:17.999Z,1011.76
2017-07-07T02:39:18.031Z,1011.81
2017-07-07T02:40:18.069Z,1011.81
2017-07-07T02:41:18.079Z,1011.78
2017-07-07T02:42:18.136Z,1011.76
2017-07-07T02:43:18.169Z,1011.78
2017-07-07T02:44:18.190Z,1011.71
2017-07-07T02:45:18.239Z,1011.67
2017-07-07T02:46:18.270Z,1011.67
2017-07-07T02:47:18.290Z,1011.63
2017-07-07T02:48:18.326Z,1011.62
2017-07-07T02:49:18.376Z,1011.62
2017-07-07T02:50:18.409Z,1011.63
2017-07-07T02:51:18.440Z,1011.6
2017-07-07T02:52:18.477Z,1011.63
2017-07-07T02:53:18.514Z,1011.62
2017-07-07T02:54:18.540Z,1011.56
2017-07-07T02:55:18.583Z,1011.61
2017-07-07T02:56:18.611Z,1011.64
2017-07-07T02:57:18.648Z,1011.6
2017-07-07T02:58:18.679Z,1011.55
2017-07-07T02:59:18.715Z,1011.57
2017-07-07T03:00:18.747Z,1011.61
2017-07-07T03:01:18.785Z,1011.59
2017-07-07T03:02:18.798Z,1011.54
2017-07-07T03:03:18.847Z,1011.5
2017-07-07T03:04:18.884Z,1011.48
2017-07-07T03:05:18.914Z,1011.46
2017-07-07T03:06:18.950Z,1011.41
2017-07-07T03:07:18.987Z,1011.42
2017-07-07T03:08:19.024Z,1011.4
2017-07-07T03:09:19.036Z,1011.43
2017-07-07T03:10:19.087Z,1011.41
2017-07-07T03:11:19.111Z,1011.45
2017-07-07T03:12:19.177Z,1011.45
2017-07-07T03:13:19.188Z,1011.42
2017-07-07T03:14:19.210Z,1011.42
2017-07-07T03:15:19.258Z,1011.42
2017-07-07T03:16:19.291Z,1011.37
2017-07-07T03:17:19.312Z,1011.4
2017-07-07T03:18:19.359Z,1011.34
2017-07-07T03:19:19.392Z,1011.31
2017-07-07T03:20:19.425Z,1011.27
2017-07-07T03:21:19.459Z,1011.23
2017-07-07T03:22:19.496Z,1011.27
2017-07-07T03:23:19.530Z,1011.24
2017-07-07T03:24:19.564Z,1011.33
2017-07-07T03:25:19.600Z,1011.25
2017-07-07T03:26:19.632Z,1011.3
2017-07-07T03:27:19.667Z,1011.3
2017-07-07T03:28:19.700Z,1011.29
2017-07-07T03:29:19.720Z,1011.3
2017-07-07T03:30:19.749Z,1011.26
2017-07-07T03:31:19.801Z,1011.29
2017-07-07T03:32:19.834Z,1011.31
2017-07-07T03:33:19.869Z,1011.39
2017-07-07T03:34:19.902Z,1011.4
2017-07-07T03:35:19.936Z,1011.4
2017-07-07T03:36:19.970Z,1011.43
2017-07-07T03:37:20.003Z,1011.43
2017-07-07T03:38:20.043Z,1011.4
2017-07-07T03:39:20.078Z,1011.4
2017-07-07T03:40:20.108Z,1011.44
2017-07-07T03:41:20.139Z,1011.51
2017-07-07T03:42:20.179Z,1011.47
2017-07-07T03:43:20.216Z,1011.48
2017-07-07T03:44:20.244Z,1011.49
2017-07-07T03:45:20.281Z,1011.48
2017-07-07T03:46:20.315Z,1011.43
2017-07-07T03:47:20.348Z,1011.41
2017-07-07T03:48:20.379Z,1011.38
2017-07-07T03:49:20.416Z,1011.4
2017-07-07T03:50:20.446Z,1011.4
2017-07-07T03:51:20.486Z,1011.35
2017-07-07T03:52:20.497Z,1011.37
2017-07-07T03:53:20.553Z,1011.36
2017-07-07T03:54:20.588Z,1011.33
2017-07-07T03:55:20.618Z,1011.27
2017-07-07T03:56:20.654Z,1011.28
2017-07-07T03:57:20.689Z,1011.19
2017-07-07T03:58:20.722Z,1011.16
2017-07-07T03:59:20.758Z,1011.19
2017-07-07T04:00:20.792Z,1011.21
2017-07-07T04:01:20.824Z,1011.09
2017-07-07T04:02:20.860Z,1011.08
2017-07-07T04:03:20.889Z,1011.06
2017-07-07T04:04:20.911Z,1011.05
2017-07-07T04:05:20.963Z,1011.06
2017-07-07T04:06:20.997Z,1011.05
2017-07-07T04:07:21.034Z,1011.08
2017-07-07T04:08:21.069Z,1011.1
2017-07-07T04:09:21.104Z,1011.11
2017-07-07T04:10:21.134Z,1011.11
2017-07-07T04:11:21.170Z,1011.18
2017-07-07T04:12:21.199Z,1011.22
2017-07-07T04:13:21.222Z,1011.23
2017-07-07T04:14:21.269Z,1011.18
2017-07-07T04:15:21.309Z,1011.18
2017-07-07T04:16:21.343Z,1011.3
2017-07-07T04:17:21.375Z,1011.31
2017-07-07T04:18:21.408Z,1011.31
2017-07-07T04:19:21.454Z,1011.25
2017-07-07T04:20:21.479Z,1011.25
2017-07-07T04:21:21.512Z,1011.25
2017-07-07T04:22:21.544Z,1011.22
2017-07-07T04:23:21.560Z,1011.22
2017-07-07T04:24:21.617Z,1011.24
2017-07-07T04:25:21.647Z,1011.28
2017-07-07T04:26:21.696Z,1011.23
2017-07-07T04:27:21.704Z,1011.24
2017-07-07T04:28:21.754Z,1011.29
2017-07-07T04:29:21.785Z,1011.31
2017-07-07T04:30:21.822Z,1011.28
2017-07-07T04:31:21.856Z,1011.21
2017-07-07T04:32:21.890Z,1011.23
2017-07-07T04:33:21.925Z,1011.22
2017-07-07T04:34:21.961Z,1011.2
2017-07-07T04:35:22.000Z,1011.14
2017-07-07T04:36:22.028Z,1011.12
2017-07-07T04:37:22.064Z,1011.17
2017-07-07T04:38:22.082Z,1011.16
2017-07-07T04:39:22.135Z,1011.19
2017-07-07T04:40:22.167Z,1011.16
2017-07-07T04:41:22.202Z,1011.04
2017-07-07T04:42:22.238Z,1011.04
2017-07-07T04:43:22.276Z,1011.18
2017-07-07T04:44:22.305Z,1011.22
2017-07-07T04:45:22.338Z,1011.19
2017-07-07T04:46:22.376Z,1011.11
2017-07-07T04:47:22.409Z,1011.08
2017-07-07T04:48:22.433Z,1011.16
2017-07-07T04:49:22.479Z,1011.2
2017-07-07T04:50:22.515Z,1011.18
2017-07-07T04:51:22.528Z,1011.15
2017-07-07T04:52:22.584Z,1011.12
2017-07-07T04:53:22.621Z,1011.09
2017-07-07T04:54:22.653Z,1011.09
2017-07-07T04:55:22.688Z,1011.09
2017-07-07T04:56:22.722Z,1011.12
2017-07-07T04:57:22.756Z,1011.13
2017-07-07T04:58:22.770Z,1011.08
2017-07-07T04:59:22.835Z,1011.09
2017-07-07T05:00:22.858Z,1011.08
2017-07-07T05:01:22.897Z,1011.08
2017-07-07T05:02:22.930Z,1011.08
2017-07-07T05:03:22.964Z,1011.01
2017-07-07T05:04:23.001Z,1011.04
2017-07-07T05:05:23.033Z,1011.08
2017-07-07T05:06:23.064Z,1011.09
2017-07-07T05:07:23.101Z,1011.06
2017-07-07T05:08:23.138Z,1011.04
2017-07-07T05:09:23.169Z,1011.07
2017-07-07T05:10:23.204Z,1011.08
2017-07-07T05:11:23.236Z,1011.09
2017-07-07T05:12:23.274Z,1011.08
2017-07-07T05:13:23.306Z,1011.1
2017-07-07T05:14:23.346Z,1011.19
2017-07-07T05:15:23.379Z,1011.18
2017-07-07T05:16:23.397Z,1011.16
2017-07-07T05:17:23.430Z,1011.12
2017-07-07T05:18:23.480Z,1011.14
2017-07-07T05:19:23.519Z,1011.16
2017-07-07T05:20:23.546Z,1011.1
2017-07-07T05:21:23.584Z,1011.12
2017-07-07T05:22:23.624Z,1011.06
2017-07-07T05:23:23.657Z,1011.09
2017-07-07T05:24:23.675Z,1011.09
2017-07-07T05:25:23.729Z,1011.03
2017-07-07T05:26:23.746Z,1011.07
2017-07-07T05:27:23.792Z,1011.03
2017-07-07T05:28:23.831Z,1011.07
2017-07-07T05:29:23.865Z,1011.14
2017-07-07T05:30:23.900Z,1011.07
2017-07-07T05:31:23.931Z,1011.12
2017-07-07T05:32:23.971Z,1011.13
2017-07-07T05:33:24.001Z,1011.1
2017-07-07T05:34:24.040Z,1011.11
2017-07-07T05:35:24.072Z,1011.17
2017-07-07T05:36:24.108Z,1011.19
2017-07-07T05:37:24.147Z,1011.22
2017-07-07T05:38:24.176Z,1011.15
2017-07-07T05:39:24.199Z,1011.21
2017-07-07T05:40:24.244Z,1011.23
2017-07-07T05:41:24.272Z,1011.19
2017-07-07T05:42:24.314Z,1011.18
2017-07-07T05:43:24.346Z,1011.19
2017-07-07T05:44:24.384Z,1011.21
2017-07-07T05:45:24.404Z,1011.23
2017-07-07T05:46:24.452Z,1011.2
2017-07-07T05:47:24.485Z,1011.15
2017-07-07T05:48:24.525Z,1011.15
2017-07-07T05:49:24.559Z,1011.17
2017-07-07T05:50:24.592Z,1011.17
2017-07-07T05:51:24.633Z,1011.14
2017-07-07T05:52:24.665Z,1011.13
2017-07-07T05:53:24.699Z,1011.1
2017-07-07T05:54:24.734Z,1011.1
2017-07-07T05:55:24.766Z,1011.12
2017-07-07T05:56:24.802Z,1011.04
2017-07-07T05:57:24.840Z,1011
2017-07-07T05:58:24.854Z,1011.01
2017-07-07T05:59:24.907Z,1011
2017-07-07T06:00:24.942Z,1010.93
2017-07-07T06:01:24.978Z,1010.91
2017-07-07T06:02:24.993Z,1010.92
2017-07-07T06:03:25.048Z,1010.9
2017-07-07T06:04:25.082Z,1010.87
2017-07-07T06:05:25.117Z,1010.86
2017-07-07T06:06:25.148Z,1010.8
2017-07-07T06:07:25.187Z,1010.75
2017-07-07T06:08:25.205Z,1010.73
2017-07-07T06:09:25.246Z,1010.72
2017-07-07T06:10:25.289Z,1010.67
2017-07-07T06:11:25.326Z,1010.66
2017-07-07T06:12:25.344Z,1010.58
2017-07-07T06:13:25.396Z,1010.55
2017-07-07T06:14:25.437Z,1010.51
2017-07-07T06:15:25.466Z,1010.5
2017-07-07T06:16:25.499Z,1010.52
2017-07-07T06:17:25.541Z,1010.48
2017-07-07T06:18:25.568Z,1010.43
2017-07-07T06:19:25.605Z,1010.44
2017-07-07T06:20:25.644Z,1010.36
2017-07-07T06:21:25.678Z,1010.33
2017-07-07T06:22:25.694Z,1010.31
2017-07-07T06:23:25.745Z,1010.27
2017-07-07T06:24:25.783Z,1010.2
2017-07-07T06:25:25.815Z,1010.19
2017-07-07T06:26:25.851Z,1010.2
2017-07-07T06:27:25.886Z,1010.17
2017-07-07T06:28:25.921Z,1010.21
2017-07-07T06:29:25.951Z,1010.21
2017-07-07T06:30:25.989Z,1010.22
2017-07-07T06:31:26.023Z,1010.22
2017-07-07T06:32:26.053Z,1010.19
2017-07-07T06:33:26.091Z,1010.22
2017-07-07T06:34:26.130Z,1010.22
2017-07-07T06:35:26.146Z,1010.27
2017-07-07T06:36:26.196Z,1010.24
2017-07-07T06:37:26.259Z,1010.27
2017-07-07T06:38:26.264Z,1010.33
2017-07-07T06:39:26.302Z,1010.26
2017-07-07T06:40:26.336Z,1010.27
2017-07-07T06:41:26.371Z,1010.27
2017-07-07T06:42:26.405Z,1010.24
2017-07-07T06:43:26.439Z,1010.26
2017-07-07T06:44:26.470Z,1010.24
2017-07-07T06:45:26.508Z,1010.23
2017-07-07T06:46:26.545Z,1010.26
2017-07-07T06:47:26.578Z,1010.27
2017-07-07T06:48:26.615Z,1010.23
2017-07-07T06:49:26.646Z,1010.22
2017-07-07T06:50:26.734Z,1010.24
2017-07-07T06:51:26.715Z,1010.22
2017-07-07T06:52:26.748Z,1010.23
2017-07-07T06:53:26.784Z,1010.22
2017-07-07T06:54:26.819Z,1010.2
2017-07-07T06:55:26.855Z,1010.2
2017-07-07T06:56:26.957Z,1010.18
2017-07-07T06:57:26.925Z,1010.13
2017-07-07T06:58:26.946Z,1010.15
2017-07-07T06:59:26.992Z,1010.14
2017-07-07T07:00:27.032Z,1010.19
2017-07-07T07:01:27.088Z,1010.17
2017-07-07T07:02:27.083Z,1010.22
2017-07-07T07:03:27.132Z,1010.22
2017-07-07T07:04:27.157Z,1010.19
2017-07-07T07:05:27.200Z,1010.26
2017-07-07T07:06:27.237Z,1010.28
2017-07-07T07:07:27.257Z,1010.38
2017-07-07T07:08:27.308Z,1010.5
2017-07-07T07:09:27.331Z,1010.47
2017-07-07T07:10:27.376Z,1010.55
2017-07-07T07:11:27.429Z,1010.53
2017-07-07T07:12:27.597Z,1010.5
2017-07-07T07:13:27.465Z,1010.48
2017-07-07T07:14:27.516Z,1010.48
2017-07-07T07:15:27.539Z,1010.51
2017-07-07T07:16:27.588Z,1010.55
2017-07-07T07:17:27.623Z,1010.56
2017-07-07T07:18:27.663Z,1010.58
2017-07-07T07:19:27.693Z,1010.56
2017-07-07T07:20:27.729Z,1010.57
2017-07-07T07:21:27.768Z,1010.45
2017-07-07T07:22:27.800Z,1010.49
2017-07-07T07:23:27.832Z,1010.49
2017-07-07T07:24:27.865Z,1010.46
2017-07-07T07:25:27.902Z,1010.44
2017-07-07T07:26:27.941Z,1010.42
2017-07-07T07:27:27.974Z,1010.43
2017-07-07T07:28:28.007Z,1010.44
2017-07-07T07:29:28.047Z,1010.47
2017-07-07T07:30:28.077Z,1010.54
2017-07-07T07:31:28.114Z,1010.55
2017-07-07T07:32:28.138Z,1010.57
2017-07-07T07:33:28.186Z,1010.56
2017-07-07T07:34:28.224Z,1010.59
2017-07-07T07:35:28.263Z,1010.6
2017-07-07T07:36:28.291Z,1010.61
2017-07-07T07:37:28.327Z,1010.56
2017-07-07T07:38:28.362Z,1010.57
2017-07-07T07:39:28.396Z,1010.58
2017-07-07T07:40:28.436Z,1010.55
2017-07-07T07:41:28.467Z,1010.53
2017-07-07T07:42:28.504Z,1010.62
2017-07-07T07:43:28.540Z,1010.58
2017-07-07T07:44:28.573Z,1010.61
2017-07-07T07:45:28.615Z,1010.6
2017-07-07T07:46:28.648Z,1010.58
2017-07-07T07:47:28.682Z,1010.57
2017-07-07T07:48:28.716Z,1010.62
2017-07-07T07:49:28.750Z,1010.59
2017-07-07T07:50:28.790Z,1010.61
2017-07-07T07:51:28.822Z,1010.65
2017-07-07T07:52:28.855Z,1010.67
2017-07-07T07:53:28.895Z,1010.67
2017-07-07T07:54:28.932Z,1010.67
2017-07-07T07:55:28.968Z,1010.73
2017-07-07T07:56:29.004Z,1010.71
2017-07-07T07:57:29.042Z,1010.74
2017-07-07T07:58:29.074Z,1010.75
2017-07-07T07:59:29.108Z,1010.75
2017-07-07T08:00:29.148Z,1010.8
2017-07-07T08:01:29.178Z,1010.82
2017-07-07T08:02:29.218Z,1010.8
2017-07-07T08:03:29.402Z,1010.84
2017-07-07T08:04:29.289Z,1010.83
2017-07-07T08:05:29.327Z,1010.81
2017-07-07T08:06:29.352Z,1010.83
2017-07-07T08:07:29.400Z,1010.88
2017-07-07T08:08:29.432Z,1010.9
2017-07-07T08:09:29.458Z,1010.86
2017-07-07T08:10:29.502Z,1010.91
2017-07-07T08:11:29.542Z,1010.91
2017-07-07T08:12:29.573Z,1010.89
2017-07-07T08:13:29.609Z,1010.9
2017-07-07T08:14:29.645Z,1010.92
2017-07-07T08:15:29.689Z,1010.96
2017-07-07T08:16:29.718Z,1010.96
2017-07-07T08:17:29.754Z,1011.04
2017-07-07T08:18:29.790Z,1011.01
2017-07-07T08:19:29.831Z,1011.04
2017-07-07T08:20:29.849Z,1011.03
2017-07-07T08:21:29.900Z,1011.06
2017-07-07T08:22:29.938Z,1011.1
2017-07-07T08:23:29.966Z,1011.11
2017-07-07T08:24:30.004Z,1011.09
2017-07-07T08:25:30.042Z,1011.17
2017-07-07T08:26:30.075Z,1011.15
2017-07-07T08:27:30.110Z,1011.17
2017-07-07T08:28:30.149Z,1011.2
2017-07-07T08:29:30.185Z,1011.21
2017-07-07T08:30:30.218Z,1011.22
2017-07-07T08:31:30.252Z,1011.16
2017-07-07T08:32:30.290Z,1011.18
2017-07-07T08:33:30.329Z,1011.2
2017-07-07T08:34:30.357Z,1011.25
2017-07-07T08:35:30.398Z,1011.21
2017-07-07T08:36:30.435Z,1011.19
2017-07-07T08:37:30.453Z,1011.2
2017-07-07T08:38:30.504Z,1011.17
2017-07-07T08:39:30.541Z,1011.21
2017-07-07T08:40:30.578Z,1011.27
2017-07-07T08:41:30.607Z,1011.27
2017-07-07T08:42:30.648Z,1011.27
2017-07-07T08:43:30.686Z,1011.25
2017-07-07T08:44:30.718Z,1011.26
2017-07-07T08:45:30.749Z,1011.21
2017-07-07T08:46:30.790Z,1011.23
2017-07-07T08:47:30.829Z,1011.2
2017-07-07T08:48:30.856Z,1011.19
2017-07-07T08:49:30.893Z,1011.16
2017-07-07T08:50:30.936Z,1011.14
2017-07-07T08:51:30.949Z,1011.11
2017-07-07T08:52:30.999Z,1011.12
2017-07-07T08:53:31.040Z,1011.12
2017-07-07T08:54:31.077Z,1011.11
2017-07-07T08:55:31.109Z,1011.12
2017-07-07T08:56:31.146Z,1011.13
2017-07-07T08:57:31.184Z,1011.1
2017-07-07T08:58:31.216Z,1011.05
2017-07-07T08:59:31.250Z,1011.06
2017-07-07T09:00:31.289Z,1011.03
2017-07-07T09:01:31.326Z,1011.04
2017-07-07T09:02:31.336Z,1010.99
2017-07-07T09:03:31.393Z,1011.03
2017-07-07T09:04:31.432Z,1011.06
2017-07-07T09:05:31.470Z,1011.09
2017-07-07T09:06:31.505Z,1011.09
2017-07-07T09:07:31.539Z,1011.04
2017-07-07T09:08:31.575Z,1011.05
2017-07-07T09:09:32.009Z,1011.04
2017-07-07T09:10:31.645Z,1011.02
2017-07-07T09:11:31.684Z,1011.03
2017-07-07T09:12:31.716Z,1011
2017-07-07T09:13:31.753Z,1011.03
2017-07-07T09:14:31.785Z,1010.94
2017-07-07T09:15:31.823Z,1010.99
2017-07-07T09:16:31.839Z,1010.96
2017-07-07T09:17:31.894Z,1011
2017-07-07T09:18:31.933Z,1011.04
2017-07-07T09:19:31.969Z,1011.04
2017-07-07T09:20:32.002Z,1011.05
2017-07-07T09:21:32.039Z,1011.02
2017-07-07T09:22:32.076Z,1011.11
2017-07-07T09:23:32.110Z,1011.09
2017-07-07T09:24:32.148Z,1011.11
2017-07-07T09:25:32.182Z,1011.13
2017-07-07T09:26:32.215Z,1011.17
2017-07-07T09:27:32.258Z,1011.17
2017-07-07T09:28:32.293Z,1011.15
2017-07-07T09:29:32.330Z,1011.11
2017-07-07T09:30:32.362Z,1011.23
2017-07-07T09:31:32.399Z,1011.21
2017-07-07T09:32:32.442Z,1011.08
2017-07-07T09:33:32.480Z,1011.03
2017-07-07T09:34:32.514Z,1011.05
2017-07-07T09:35:32.551Z,1011.08
2017-07-07T09:36:32.584Z,1011.09
2017-07-07T09:37:32.627Z,1011.08
2017-07-07T09:38:32.658Z,1011.04
2017-07-07T09:39:32.701Z,1011.05
2017-07-07T09:40:32.739Z,1011.03
2017-07-07T09:41:32.757Z,1011.01
2017-07-07T09:42:32.813Z,1010.99
2017-07-07T09:43:32.851Z,1010.99
2017-07-07T09:44:32.886Z,1010.95
2017-07-07T09:45:32.926Z,1010.97
2017-07-07T09:46:32.943Z,1010.91
2017-07-07T09:47:33.001Z,1010.93
2017-07-07T09:48:33.037Z,1010.9
2017-07-07T09:49:33.077Z,1010.92
2017-07-07T09:50:33.115Z,1010.89
2017-07-07T09:51:33.148Z,1010.92
2017-07-07T09:52:33.191Z,1010.94
2017-07-07T09:53:33.227Z,1010.94
2017-07-07T09:54:33.263Z,1010.92
2017-07-07T09:55:33.304Z,1010.9
2017-07-07T09:56:33.345Z,1010.89
2017-07-07T09:57:33.379Z,1010.87
2017-07-07T09:58:33.410Z,1010.91
2017-07-07T09:59:33.459Z,1010.82
2017-07-07T10:00:33.491Z,1010.86
2017-07-07T10:01:33.516Z,1010.86
2017-07-07T10:02:33.564Z,1010.94
2017-07-07T10:03:33.607Z,1011.01
2017-07-07T10:04:33.648Z,1011.03
2017-07-07T10:05:33.684Z,1011.02
2017-07-07T10:06:33.721Z,1011.05
2017-07-07T10:07:33.762Z,1011.47
2017-07-07T10:08:33.800Z,1011.53
2017-07-07T10:09:33.821Z,1011.1
2017-07-07T10:10:33.876Z,1011.12
2017-07-07T10:11:33.916Z,1012.18
2017-07-07T10:12:33.955Z,1012.04
2017-07-07T10:13:33.994Z,1012.14
2017-07-07T10:14:34.037Z,1011.93
2017-07-07T10:15:34.078Z,1011.66
2017-07-07T10:16:34.118Z,1011.6
2017-07-07T10:17:34.157Z,1011.39
2017-07-07T10:18:34.201Z,1011.75
2017-07-07T10:19:34.240Z,1012
2017-07-07T10:20:34.284Z,1011.98
2017-07-07T10:21:34.330Z,1011.97
2017-07-07T10:22:34.373Z,1011.99
2017-07-07T10:23:34.413Z,1012.01
2017-07-07T10:24:34.456Z,1011.88
2017-07-07T10:25:34.500Z,1011.8
2017-07-07T10:26:34.547Z,1011.77
2017-07-07T10:27:34.590Z,1011.78
2017-07-07T10:28:34.631Z,1011.79
2017-07-07T10:29:34.678Z,1011.91
2017-07-07T10:30:34.727Z,1012.01
2017-07-07T10:31:34.749Z,1012.09
2017-07-07T10:32:34.810Z,1012.19
2017-07-07T10:33:34.858Z,1012.36
2017-07-07T10:34:34.900Z,1012.37
2017-07-07T10:35:34.949Z,1012.36
2017-07-07T10:36:34.990Z,1012.45
2017-07-07T10:37:35.032Z,1012.55
2017-07-07T10:38:35.080Z,1012.49
2017-07-07T10:39:35.121Z,1012.44
2017-07-07T10:40:35.150Z,1012.44
2017-07-07T10:41:35.212Z,1012.48
2017-07-07T10:42:35.257Z,1012.47
2017-07-07T10:43:35.298Z,1012.75
2017-07-07T10:44:35.343Z,1012.7
2017-07-07T10:45:35.386Z,1012.88
2017-07-07T10:46:35.433Z,1012.53
2017-07-07T10:47:35.463Z,1012.69
2017-07-07T10:48:35.519Z,1012.97
2017-07-07T10:49:35.565Z,1013.15
2017-07-07T10:50:35.606Z,1013.03
2017-07-07T10:51:35.751Z,1012.82
2017-07-07T10:52:35.693Z,1012.78
2017-07-07T10:53:35.734Z,1012.95
2017-07-07T10:54:35.761Z,1013.06
2017-07-07T10:55:35.822Z,1013.08
2017-07-07T10:56:35.865Z,1013.05
2017-07-07T10:57:35.907Z,1013.1
2017-07-07T10:58:35.952Z,1013.2
2017-07-07T10:59:35.991Z,1013.4
2017-07-07T11:00:36.036Z,1013.5
2017-07-07T11:01:36.072Z,1013.28
2017-07-07T11:02:36.116Z,1012.61
2017-07-07T11:03:36.166Z,1011.09
2017-07-07T11:04:36.202Z,1010.44
2017-07-07T11:05:36.241Z,1010.34
2017-07-07T11:06:36.289Z,1010.34
2017-07-07T11:07:36.325Z,1010.35
2017-07-07T11:08:36.360Z,1010.36
2017-07-07T11:09:36.413Z,1010.38
2017-07-07T11:10:36.457Z,1010.38
2017-07-07T11:11:36.497Z,1010.42
2017-07-07T11:12:36.539Z,1010.39
2017-07-07T11:13:36.577Z,1010.37
2017-07-07T11:14:36.620Z,1010.37
2017-07-07T11:15:36.663Z,1010.38
2017-07-07T11:16:36.698Z,1010.39
2017-07-07T11:17:36.745Z,1010.37
2017-07-07T11:18:36.782Z,1010.37
2017-07-07T11:19:36.823Z,1010.36
2017-07-07T11:20:36.869Z,1010.34
2017-07-07T11:21:36.910Z,1010.36
2017-07-07T11:22:36.935Z,1010.34
2017-07-07T11:23:36.988Z,1010.33
2017-07-07T11:24:37.033Z,1010.32
2017-07-07T11:25:37.067Z,1010.36
2017-07-07T11:26:37.109Z,1010.39
2017-07-07T11:27:37.254Z,1010.39
2017-07-07T11:28:37.191Z,1010.44
2017-07-07T11:29:37.233Z,1010.45
2017-07-07T11:30:37.271Z,1010.38
2017-07-07T11:31:37.315Z,1010.38
2017-07-07T11:32:37.350Z,1010.39
2017-07-07T11:33:37.397Z,1010.34
2017-07-07T11:34:37.435Z,1010.35
2017-07-07T11:35:37.473Z,1010.39
2017-07-07T11:36:37.516Z,1010.34
2017-07-07T11:37:37.552Z,1010.28
2017-07-07T11:38:37.592Z,1010.27
2017-07-07T11:39:37.640Z,1010.28
2017-07-07T11:40:37.656Z,1010.28
2017-07-07T11:41:37.701Z,1010.26
2017-07-07T11:42:37.759Z,1010.27
2017-07-07T11:43:37.798Z,1010.29
2017-07-07T11:44:37.820Z,1010.22
2017-07-07T11:45:37.875Z,1010.17
2017-07-07T11:46:37.918Z,1010.17
2017-07-07T11:47:37.951Z,1010.15
2017-07-07T11:48:38.000Z,1010.2
2017-07-07T11:49:38.036Z,1010.22
2017-07-07T11:50:38.061Z,1010.17
2017-07-07T11:51:38.118Z,1010.19
2017-07-07T11:52:38.161Z,1010.26
2017-07-07T11:53:38.196Z,1010.21
2017-07-07T11:54:38.235Z,1010.21
2017-07-07T11:55:38.279Z,1010.24
2017-07-07T11:56:38.319Z,1010.18
2017-07-07T11:57:38.361Z,1010.17
2017-07-07T11:58:38.397Z,1010.17
2017-07-07T11:59:38.436Z,1010.17
2017-07-07T12:00:38.478Z,1010.13
2017-07-07T12:01:38.502Z,1010.18
2017-07-07T12:02:38.558Z,1010.13
2017-07-07T12:03:38.747Z,1010.15
2017-07-07T12:04:38.634Z,1010.12
2017-07-07T12:05:38.678Z,1010.1
2017-07-07T12:06:38.711Z,1010.11
2017-07-07T12:07:38.753Z,1010.13
2017-07-07T12:08:38.791Z,1010.1